createdAt,value
2018-06-17T00:02:18.691Z,20.50
2018-06-17T00:04:52.480Z,19.73
2018-06-17T00:07:26.434Z,20.68
2018-06-17T00:10:00.479Z,21.62
2018-06-17T00:12:34.578Z,20.88
2018-06-17T00:15:08.696Z,20.57
2018-06-17T00:17:43.165Z,22.55
2018-06-17T00:20:17.100Z,22.85
2018-06-17T00:22:50.995Z,21.48
2018-06-17T00:25:25.112Z,21.75
2018-06-17T00:27:58.860Z,21.77
2018-06-17T00:30:32.866Z,20.88
2018-06-17T00:33:06.612Z,22.10
2018-06-17T00:35:40.978Z,20.57
2018-06-17T00:38:14.828Z,22.52
2018-06-17T00:40:48.802Z,23.25
2018-06-17T00:43:23.108Z,23.27
2018-06-17T00:45:56.974Z,24.63
2018-06-17T00:48:31.099Z,22.52
2018-06-17T00:51:05.185Z,22.30
2018-06-17T00:53:39.180Z,25.00
2018-06-17T00:56:13.100Z,26.95
2018-06-17T00:58:47.006Z,24.67
2018-06-17T01:01:21.011Z,23.05
2018-06-17T01:03:55.048Z,25.27
2018-06-17T01:06:28.994Z,26.65
2018-06-17T01:09:03.475Z,24.90
2018-06-17T01:11:37.395Z,26.65
2018-06-17T01:14:11.168Z,27.10
2018-06-17T01:16:45.100Z,24.52
2018-06-17T01:19:19.008Z,26.53
2018-06-17T01:21:53.170Z,26.50
2018-06-17T01:24:27.183Z,27.07
2018-06-17T01:27:01.156Z,28.77
2018-06-17T01:29:36.035Z,25.97
2018-06-17T01:32:10.245Z,28.90
2018-06-17T01:34:44.224Z,27.67
2018-06-17T01:37:17.918Z,29.50
2018-06-17T01:39:52.425Z,28.50
2018-06-17T01:42:26.208Z,28.52
2018-06-17T01:45:00.602Z,27.05
2018-06-17T01:47:34.674Z,28.60
2018-06-17T01:50:08.483Z,31.12
2018-06-17T01:52:42.265Z,28.35
2018-06-17T01:55:16.464Z,29.80
2018-06-17T01:57:50.554Z,30.20
2018-06-17T02:00:24.828Z,28.87
2018-06-17T02:03:02.980Z,29.60
2018-06-17T02:05:42.683Z,28.53
2018-06-17T02:08:22.635Z,27.07
2018-06-17T02:11:02.044Z,28.47
2018-06-17T02:13:35.863Z,28.73
2018-06-17T02:16:10.030Z,30.20
2018-06-17T02:18:43.691Z,29.77
2018-06-17T02:21:17.649Z,32.78
2018-06-17T02:23:52.248Z,31.13
2018-06-17T02:26:26.073Z,29.48
2018-06-17T02:28:59.968Z,34.07
2018-06-17T02:31:34.012Z,31.80
2018-06-17T02:34:07.990Z,30.47
2018-06-17T02:36:42.024Z,32.83
2018-06-17T02:39:16.105Z,31.13
2018-06-17T02:41:49.941Z,30.80
2018-06-17T02:44:23.944Z,32.03
2018-06-17T02:47:03.073Z,33.60
2018-06-17T02:49:39.007Z,31.80
2018-06-17T02:52:18.611Z,30.20
2018-06-17T02:54:52.733Z,33.27
2018-06-17T02:57:26.851Z,28.70
2018-06-17T03:00:01.067Z,32.87
2018-06-17T03:02:35.134Z,28.37
2018-06-17T03:05:09.061Z,28.00
2018-06-17T03:07:43.262Z,28.20
2018-06-17T03:10:17.169Z,27.63
2018-06-17T03:12:50.968Z,30.00
2018-06-17T03:15:25.612Z,30.07
2018-06-17T03:17:59.624Z,28.00
2018-06-17T03:20:34.223Z,28.45
2018-06-17T03:23:08.315Z,30.67
2018-06-17T03:25:47.694Z,28.07
2018-06-17T03:28:27.328Z,28.27
2018-06-17T03:31:07.061Z,26.67
2018-06-17T03:33:52.133Z,28.40
2018-06-17T03:36:26.121Z,27.13
2018-06-17T03:38:59.968Z,27.67
2018-06-17T03:41:33.880Z,26.10
2018-06-17T03:44:07.815Z,25.17
2018-06-17T03:46:41.776Z,25.47
2018-06-17T03:49:15.712Z,25.00
2018-06-17T03:51:49.849Z,27.13
2018-06-17T03:54:23.661Z,26.77
2018-06-17T03:56:57.934Z,27.20
2018-06-17T03:59:31.908Z,24.90
2018-06-17T04:02:05.945Z,24.80
2018-06-17T04:04:45.606Z,25.87
2018-06-17T04:07:19.513Z,24.90
2018-06-17T04:09:53.599Z,24.67
2018-06-17T04:12:27.762Z,23.73
2018-06-17T04:15:01.451Z,19.57
2018-06-17T04:17:35.378Z,20.10
2018-06-17T04:20:09.163Z,17.87
2018-06-17T04:22:43.034Z,16.67
2018-06-17T04:25:17.149Z,14.07
2018-06-17T04:27:51.060Z,14.47
2018-06-17T04:30:24.859Z,13.10
2018-06-17T04:32:59.224Z,11.90
2018-06-17T04:35:32.979Z,10.43
2018-06-17T04:38:06.804Z,10.03
2018-06-17T04:40:40.914Z,10.07
2018-06-17T04:43:15.404Z,9.10
2018-06-17T04:45:49.520Z,9.87
2018-06-17T04:48:24.460Z,9.33
2018-06-17T04:50:58.231Z,9.37
2018-06-17T04:53:32.038Z,10.40
2018-06-17T04:56:06.100Z,9.63
2018-06-17T04:58:39.849Z,10.17
2018-06-17T05:01:13.741Z,9.77
2018-06-17T05:03:48.416Z,10.20
2018-06-17T05:06:22.319Z,10.40
2018-06-17T05:08:56.360Z,10.40
2018-06-17T05:11:30.800Z,9.57
2018-06-17T05:14:05.043Z,10.27
2018-06-17T05:16:38.859Z,9.27
2018-06-17T05:19:12.943Z,9.10
2018-06-17T05:21:46.915Z,8.27
2018-06-17T05:24:21.074Z,7.90
2018-06-17T05:26:54.916Z,7.60
2018-06-17T05:29:28.694Z,6.53
2018-06-17T05:32:03.085Z,7.13
2018-06-17T05:34:36.988Z,6.40
2018-06-17T05:37:10.891Z,6.10
2018-06-17T05:39:44.860Z,5.50
2018-06-17T05:42:18.754Z,5.03
2018-06-17T05:44:52.827Z,4.50
2018-06-17T05:47:26.851Z,4.00
2018-06-17T05:50:00.919Z,4.03
2018-06-17T05:52:34.891Z,3.80
2018-06-17T05:55:08.824Z,3.37
2018-06-17T05:57:42.569Z,3.20
2018-06-17T06:00:16.512Z,3.22
2018-06-17T06:02:50.500Z,3.52
2018-06-17T06:05:24.402Z,3.17
2018-06-17T06:07:58.879Z,3.15
2018-06-17T06:10:33.000Z,2.95
2018-06-17T06:13:06.855Z,2.62
2018-06-17T06:15:41.023Z,2.52
2018-06-17T06:18:14.900Z,2.17
2018-06-17T06:20:49.079Z,2.60
2018-06-17T06:23:22.901Z,2.17
2018-06-17T06:25:57.105Z,2.27
2018-06-17T06:28:31.047Z,2.67
2018-06-17T06:31:05.378Z,2.50
2018-06-17T06:33:39.956Z,2.10
2018-06-17T06:36:13.873Z,2.40
2018-06-17T06:38:47.940Z,2.50
2018-06-17T06:41:21.846Z,2.02
2018-06-17T06:43:56.607Z,2.05
2018-06-17T06:46:30.404Z,2.02
2018-06-17T06:49:04.275Z,2.00
2018-06-17T06:51:38.265Z,2.30
2018-06-17T06:54:12.479Z,1.85
2018-06-17T06:56:46.526Z,2.00
2018-06-17T06:59:20.308Z,2.20
2018-06-17T07:02:05.642Z,1.70
2018-06-17T07:04:51.183Z,1.90
2018-06-17T07:07:36.705Z,2.10
2018-06-17T07:10:23.112Z,1.70
2018-06-17T07:12:57.011Z,2.12
2018-06-17T07:15:42.365Z,1.72
2018-06-17T07:18:31.288Z,1.70
2018-06-17T07:21:05.487Z,1.80
2018-06-17T07:23:39.658Z,1.77
2018-06-17T07:26:30.313Z,1.72
2018-06-17T07:29:15.946Z,1.55
2018-06-17T07:31:49.776Z,1.52
2018-06-17T07:34:23.992Z,1.50
2018-06-17T07:36:58.431Z,1.60
2018-06-17T07:41:42.134Z,1.60
2018-06-17T07:44:15.909Z,1.22
2018-06-17T07:46:49.996Z,1.72
2018-06-17T07:49:37.550Z,1.70
2018-06-17T07:52:23.820Z,1.60
2018-06-17T07:54:58.164Z,1.60
2018-06-17T07:57:33.237Z,1.60
2018-06-17T08:00:07.496Z,1.40
2018-06-17T08:02:41.457Z,1.62
2018-06-17T08:05:15.622Z,1.95
2018-06-17T08:07:49.729Z,1.52
2018-06-17T08:10:23.575Z,1.70
2018-06-17T08:12:57.490Z,1.87
2018-06-17T08:15:31.380Z,1.70
2018-06-17T08:18:05.539Z,1.72
2018-06-17T08:20:39.756Z,2.00
2018-06-17T08:23:14.063Z,1.50
2018-06-17T08:25:48.079Z,1.90
2018-06-17T08:28:22.206Z,1.87
2018-06-17T08:30:56.336Z,2.00
2018-06-17T08:33:30.496Z,1.92
2018-06-17T08:36:04.435Z,2.08
2018-06-17T08:38:38.434Z,1.85
2018-06-17T08:41:12.815Z,2.20
2018-06-17T08:43:46.911Z,2.45
2018-06-17T08:46:21.176Z,2.50
2018-06-17T08:48:54.987Z,2.60
2018-06-17T08:51:29.724Z,2.33
2018-06-17T08:54:03.901Z,2.62
2018-06-17T08:56:38.289Z,2.58
2018-06-17T08:59:12.474Z,2.70
2018-06-17T09:01:46.400Z,2.40
2018-06-17T09:04:20.158Z,2.55
2018-06-17T09:06:54.514Z,2.60
2018-06-17T09:09:28.371Z,2.58
2018-06-17T09:12:02.306Z,3.05
2018-06-17T09:14:36.555Z,3.02
2018-06-17T09:17:10.910Z,3.00
2018-06-17T09:19:51.743Z,3.50
2018-06-17T09:22:25.602Z,3.00
2018-06-17T09:25:03.510Z,3.20
2018-06-17T09:27:37.724Z,3.08
2018-06-17T09:30:11.975Z,3.27
2018-06-17T09:32:46.021Z,3.10
2018-06-17T09:35:20.404Z,3.45
2018-06-17T09:37:54.459Z,3.00
2018-06-17T09:40:28.666Z,2.95
2018-06-17T09:43:02.955Z,3.10
2018-06-17T09:45:36.755Z,3.25
2018-06-17T09:48:10.760Z,2.50
2018-06-17T09:50:44.991Z,3.00
2018-06-17T09:53:19.431Z,2.85
2018-06-17T09:55:53.284Z,3.40
2018-06-17T09:58:27.068Z,2.60
2018-06-17T10:01:01.102Z,3.10
2018-06-17T10:03:35.265Z,3.20
2018-06-17T10:06:09.375Z,3.10
2018-06-17T10:08:43.500Z,3.40
2018-06-17T10:11:18.210Z,3.30
2018-06-17T10:13:52.405Z,3.33
2018-06-17T10:16:26.635Z,3.42
2018-06-17T10:19:00.688Z,3.00
2018-06-17T10:21:35.031Z,3.50
2018-06-17T10:24:08.900Z,3.70
2018-06-17T10:26:42.962Z,3.37
2018-06-17T10:29:16.831Z,3.40
2018-06-17T10:31:51.065Z,3.45
2018-06-17T10:34:24.712Z,3.65
2018-06-17T10:36:58.657Z,3.33
2018-06-17T10:39:32.847Z,3.52
2018-06-17T10:42:06.972Z,3.12
2018-06-17T10:44:41.011Z,3.65
2018-06-17T10:47:15.555Z,3.22
2018-06-17T10:49:49.904Z,3.52
2018-06-17T10:52:24.325Z,3.60
2018-06-17T10:54:58.462Z,3.33
2018-06-17T10:57:32.629Z,3.37
2018-06-17T11:00:07.641Z,3.15
2018-06-17T11:02:41.694Z,3.45
2018-06-17T11:05:15.843Z,3.60
2018-06-17T11:07:49.857Z,3.35
2018-06-17T11:10:24.292Z,3.22
2018-06-17T11:12:58.567Z,3.50
2018-06-17T11:15:32.626Z,3.45
2018-06-17T11:18:07.149Z,3.50
2018-06-17T11:20:41.305Z,3.20
2018-06-17T11:23:15.450Z,3.45
2018-06-17T11:25:49.541Z,3.37
2018-06-17T11:28:23.871Z,3.20
2018-06-17T11:30:59.585Z,3.40
2018-06-17T11:33:33.739Z,2.98
2018-06-17T11:36:07.750Z,2.85
2018-06-17T11:38:42.116Z,3.20
2018-06-17T11:41:16.502Z,3.20
2018-06-17T11:43:50.686Z,3.50
2018-06-17T11:46:29.430Z,3.20
2018-06-17T11:49:03.416Z,3.20
2018-06-17T11:51:38.631Z,3.37
2018-06-17T11:54:12.428Z,3.40
2018-06-17T11:56:46.786Z,3.52
2018-06-17T11:59:20.661Z,3.35
2018-06-17T12:01:54.836Z,3.72
2018-06-17T12:04:28.923Z,3.20
2018-06-17T12:07:02.976Z,2.90
2018-06-17T12:09:37.296Z,3.02
2018-06-17T12:12:11.459Z,3.40
2018-06-17T12:14:46.465Z,3.10
2018-06-17T12:17:20.624Z,3.22
2018-06-17T12:19:54.724Z,2.85
2018-06-17T12:22:29.023Z,3.27
2018-06-17T12:25:03.105Z,3.22
2018-06-17T12:27:37.054Z,2.65
2018-06-17T12:30:11.150Z,2.90
2018-06-17T12:32:45.457Z,3.00
2018-06-17T12:35:19.590Z,2.50
2018-06-17T12:37:53.695Z,2.50
2018-06-17T12:40:28.044Z,2.45
2018-06-17T12:43:02.199Z,2.70
2018-06-17T12:45:36.235Z,2.55
2018-06-17T12:48:10.266Z,2.90
2018-06-17T12:50:44.172Z,2.45
2018-06-17T12:53:18.052Z,2.58
2018-06-17T12:55:52.907Z,2.75
2018-06-17T12:58:27.316Z,2.75
2018-06-17T13:01:01.527Z,2.60
2018-06-17T13:03:35.481Z,3.10
2018-06-17T13:06:09.692Z,2.50
2018-06-17T13:08:43.808Z,2.87
2018-06-17T13:11:17.893Z,2.55
2018-06-17T13:13:51.854Z,2.70
2018-06-17T13:16:30.665Z,2.42
2018-06-17T13:19:05.248Z,2.70
2018-06-17T13:21:39.167Z,2.80
2018-06-17T13:24:13.272Z,2.58
2018-06-17T13:26:47.269Z,2.67
2018-06-17T13:29:21.719Z,2.77
2018-06-17T13:31:55.768Z,2.92
2018-06-17T13:34:29.968Z,2.58
2018-06-17T13:37:04.316Z,2.80
2018-06-17T13:39:38.549Z,2.12
2018-06-17T13:42:12.435Z,2.30
2018-06-17T13:44:46.586Z,2.22
2018-06-17T13:47:20.624Z,2.72
2018-06-17T13:49:54.808Z,2.47
2018-06-17T13:52:28.921Z,2.52
2018-06-17T13:55:02.966Z,3.17
2018-06-17T13:57:37.684Z,2.70
2018-06-17T14:00:11.730Z,3.10
2018-06-17T14:02:45.673Z,2.42
2018-06-17T14:05:19.865Z,2.83
2018-06-17T14:07:54.394Z,2.70
2018-06-17T14:10:28.525Z,2.67
2018-06-17T14:13:02.359Z,3.02
2018-06-17T14:15:36.664Z,2.85
2018-06-17T14:18:11.181Z,2.30
2018-06-17T14:20:45.205Z,2.90
2018-06-17T14:23:19.471Z,2.50
2018-06-17T14:25:53.344Z,2.87
2018-06-17T14:28:27.348Z,3.15
2018-06-17T14:31:01.375Z,3.17
2018-06-17T14:33:35.764Z,2.92
2018-06-17T14:36:10.059Z,3.35
2018-06-17T14:38:43.880Z,3.42
2018-06-17T14:41:19.084Z,2.67
2018-06-17T14:43:58.839Z,3.05
2018-06-17T14:46:38.442Z,3.27
2018-06-17T14:49:18.210Z,3.00
2018-06-17T14:51:57.695Z,2.87
2018-06-17T14:54:31.559Z,2.70
2018-06-17T14:57:05.762Z,2.77
2018-06-17T14:59:40.701Z,2.95
2018-06-17T15:02:14.725Z,2.45
2018-06-17T15:04:49.171Z,2.80
2018-06-17T15:07:23.722Z,3.00
2018-06-17T15:09:57.816Z,2.87
2018-06-17T15:12:31.759Z,3.00
2018-06-17T15:15:05.721Z,2.77
2018-06-17T15:17:39.983Z,2.98
2018-06-17T15:20:14.225Z,2.92
2018-06-17T15:22:48.066Z,3.22
2018-06-17T15:25:22.210Z,3.15
2018-06-17T15:27:56.572Z,2.92
2018-06-17T15:30:30.598Z,2.92
2018-06-17T15:33:10.469Z,3.08
2018-06-17T15:35:50.107Z,3.60
2018-06-17T15:38:29.783Z,3.05
2018-06-17T15:41:09.512Z,3.30
2018-06-17T15:43:43.461Z,3.25
2018-06-17T15:46:17.675Z,3.67
2018-06-17T15:48:51.480Z,3.15
2018-06-17T15:51:25.895Z,2.87
2018-06-17T15:53:59.890Z,3.00
2018-06-17T15:56:33.936Z,3.30
2018-06-17T15:59:08.522Z,3.50
2018-06-17T16:01:42.744Z,3.45
2018-06-17T16:04:16.869Z,3.33
2018-06-17T16:06:53.345Z,3.70
2018-06-17T16:09:27.324Z,3.50
2018-06-17T16:12:06.870Z,3.52
2018-06-17T16:14:46.505Z,2.90
2018-06-17T16:17:26.225Z,3.67
2018-06-17T16:21:08.752Z,3.62
2018-06-17T16:23:43.379Z,3.10
2018-06-17T16:26:17.695Z,3.17
2018-06-17T16:28:51.699Z,2.83
2018-06-17T16:31:25.777Z,3.15
2018-06-17T16:33:59.620Z,3.25
2018-06-17T16:36:33.806Z,3.40
2018-06-17T16:39:09.099Z,3.50
2018-06-17T16:41:43.490Z,3.20
2018-06-17T16:44:17.493Z,3.10
2018-06-17T16:46:51.790Z,2.70
2018-06-17T16:49:25.861Z,3.05
2018-06-17T16:52:05.306Z,3.08
2018-06-17T16:54:44.781Z,3.05
2018-06-17T16:58:26.417Z,2.80
2018-06-17T17:01:00.679Z,2.47
2018-06-17T17:03:34.526Z,3.30
2018-06-17T17:06:09.037Z,3.17
2018-06-17T17:08:44.567Z,3.00
2018-06-17T17:11:18.851Z,2.30
2018-06-17T17:13:52.795Z,2.45
2018-06-17T17:16:27.056Z,2.52
2018-06-17T17:19:01.202Z,2.40
2018-06-17T17:21:35.451Z,2.20
2018-06-17T17:24:09.594Z,2.40
2018-06-17T17:26:44.063Z,2.17
2018-06-17T17:29:18.441Z,2.30
2018-06-17T17:31:58.230Z,2.00
2018-06-17T17:34:38.025Z,2.52
2018-06-17T17:38:15.386Z,2.10
2018-06-17T17:40:52.907Z,2.47
2018-06-17T17:43:27.435Z,2.15
2018-06-17T17:46:07.236Z,2.55
2018-06-17T17:48:42.156Z,2.33
2018-06-17T17:51:16.017Z,2.00
2018-06-17T17:53:50.421Z,2.00
2018-06-17T17:56:24.314Z,1.92
2018-06-17T17:58:58.352Z,2.35
2018-06-17T18:01:32.376Z,1.85
2018-06-17T18:04:06.356Z,2.42
2018-06-17T18:06:40.712Z,2.22
2018-06-17T18:09:15.491Z,1.95
2018-06-17T18:11:49.567Z,2.15
2018-06-17T18:14:23.360Z,2.42
2018-06-17T18:17:02.381Z,1.85
2018-06-17T18:19:40.512Z,1.67
2018-06-17T18:22:14.570Z,1.87
2018-06-17T18:24:54.614Z,1.72
2018-06-17T18:27:38.702Z,1.90
2018-06-17T18:30:19.599Z,1.77
2018-06-17T18:32:59.390Z,1.75
2018-06-17T18:35:39.931Z,2.00
2018-06-17T18:38:13.921Z,1.98
2018-06-17T18:40:48.796Z,1.90
2018-06-17T18:43:23.395Z,1.82
2018-06-17T18:45:57.592Z,1.80
2018-06-17T18:48:32.139Z,1.80
2018-06-17T18:51:06.587Z,2.65
2018-06-17T18:53:41.226Z,1.80
2018-06-17T18:56:15.216Z,1.60
2018-06-17T18:58:49.470Z,1.80
2018-06-17T19:01:23.657Z,2.00
2018-06-17T19:03:57.945Z,1.80
2018-06-17T19:06:32.204Z,1.80
2018-06-17T19:09:12.980Z,1.90
2018-06-17T19:11:52.662Z,1.62
2018-06-17T19:14:32.306Z,1.92
2018-06-17T19:17:12.283Z,1.82
2018-06-17T19:19:47.150Z,1.95
2018-06-17T19:22:21.816Z,1.77
2018-06-17T19:24:56.015Z,2.35
2018-06-17T19:27:30.791Z,1.90
2018-06-17T19:30:08.274Z,1.95
2018-06-17T19:32:42.572Z,2.10
2018-06-17T19:35:16.608Z,2.00
2018-06-17T19:37:50.661Z,2.35
2018-06-17T19:40:24.709Z,1.82
2018-06-17T19:42:59.534Z,1.80
2018-06-17T19:45:34.326Z,2.30
2018-06-17T19:48:08.638Z,2.10
2018-06-17T19:50:48.070Z,2.52
2018-06-17T19:53:28.130Z,2.10
2018-06-17T19:56:07.761Z,1.80
2018-06-17T19:58:47.021Z,1.80
2018-06-17T20:01:21.280Z,1.98
2018-06-17T20:03:55.186Z,1.60
2018-06-17T20:06:29.167Z,2.10
2018-06-17T20:09:05.010Z,1.90
2018-06-17T20:11:39.335Z,2.10
2018-06-17T20:14:13.282Z,2.45
2018-06-17T20:16:47.705Z,2.10
2018-06-17T20:19:21.769Z,1.90
2018-06-17T20:21:56.186Z,2.10
2018-06-17T20:24:30.716Z,2.10
2018-06-17T20:27:05.016Z,1.85
2018-06-17T20:29:38.871Z,2.12
2018-06-17T20:32:18.625Z,2.00
2018-06-17T20:34:58.182Z,2.10
2018-06-17T20:37:37.434Z,2.00
2018-06-17T20:41:15.016Z,1.95
2018-06-17T20:43:51.307Z,2.00
2018-06-17T20:46:25.535Z,2.05
2018-06-17T20:49:00.109Z,2.30
2018-06-17T20:51:34.839Z,1.97
2018-06-17T20:54:08.943Z,2.10
2018-06-17T20:56:43.059Z,2.10
2018-06-17T20:59:17.634Z,2.30
2018-06-17T21:01:51.768Z,2.60
2018-06-17T21:04:26.515Z,2.63
2018-06-17T21:07:00.395Z,2.23
2018-06-17T21:09:34.425Z,2.40
2018-06-17T21:12:08.528Z,2.30
2018-06-17T21:14:42.835Z,2.53
2018-06-17T21:17:16.705Z,2.43
2018-06-17T21:19:56.224Z,2.30
2018-06-17T21:22:35.843Z,2.70
2018-06-17T21:25:15.366Z,2.20
2018-06-17T21:27:51.158Z,2.47
2018-06-17T21:30:25.196Z,2.70
2018-06-17T21:32:59.403Z,2.43
2018-06-17T21:35:33.371Z,2.80
2018-06-17T21:38:07.363Z,2.70
2018-06-17T21:40:41.357Z,2.57
2018-06-17T21:43:15.280Z,2.60
2018-06-17T21:45:49.490Z,2.53
2018-06-17T21:48:23.334Z,2.30
2018-06-17T21:50:57.344Z,2.30
2018-06-17T21:53:31.589Z,2.70
2018-06-17T21:56:05.634Z,2.43
2018-06-17T21:58:45.363Z,2.93
2018-06-17T22:01:19.749Z,3.47
2018-06-17T22:03:58.144Z,2.90
2018-06-17T22:09:18.360Z,3.10
2018-06-17T22:11:57.904Z,2.83
2018-06-17T22:14:37.575Z,3.03
2018-06-17T22:17:17.249Z,3.20
2018-06-17T22:19:50.934Z,2.83
2018-06-17T22:22:24.973Z,3.33
2018-06-17T22:24:59.457Z,3.43
2018-06-17T22:27:33.400Z,3.40
2018-06-17T22:30:07.478Z,3.33
2018-06-17T22:32:41.400Z,3.90
2018-06-17T22:35:15.562Z,3.83
2018-06-17T22:37:49.550Z,3.93
2018-06-17T22:40:23.627Z,3.93
2018-06-17T22:42:58.343Z,4.77
2018-06-17T22:45:32.085Z,4.30
2018-06-17T22:48:05.769Z,4.80
2018-06-17T22:50:39.937Z,4.93
2018-06-17T22:53:25.018Z,6.13
2018-06-17T22:55:59.715Z,6.17
2018-06-17T22:58:39.536Z,5.90
